sensor_id;sensor_type;location;lat;lon;timestamp;pressure;altitude;pressure_sealevel;temperature;humidity
50093;BME280;35974;47.752;10.290;2023-03-23T00:02:02;93434.50;;;4.12;100.00
50093;BME280;35974;47.752;10.290;2023-03-23T00:04:27;93401.50;;;3.91;100.00
50093;BME280;35974;47.752;10.290;2023-03-23T00:06:54;93435.44;;;3.96;100.00
50093;BME280;35974;47.752;10.290;2023-03-23T00:09:19;93423.81;;;3.92;100.00
50093;BME280;35974;47.752;10.290;2023-03-23T00:11:50;93409.06;;;3.78;100.00
50093;BME280;35974;47.752;10.290;2023-03-23T00:14:17;93416.03;;;3.77;100.00
50093;BME280;35974;47.752;10.290;2023-03-23T00:16:47;93441.66;;;3.87;100.00
50093;BME280;35974;47.752;10.290;2023-03-23T00:19:18;93442.22;;;3.97;100.00
50093;BME280;35974;47.752;10.290;2023-03-23T00:21:44;93422.63;;;3.80;100.00
50093;BME280;35974;47.752;10.290;2023-03-23T00:24:17;93451.34;;;3.93;100.00
50093;BME280;35974;47.752;10.290;2023-03-23T00:26:48;93456.84;;;3.90;100.00
50093;BME280;35974;47.752;10.290;2023-03-23T00:29:16;93443.16;;;4.05;100.00
50093;BME280;35974;47.752;10.290;2023-03-23T00:31:44;93422.56;;;3.88;100.00
50093;BME280;35974;47.752;10.290;2023-03-23T00:34:18;93430.88;;;3.83;100.00
50093;BME280;35974;47.752;10.290;2023-03-23T00:36:46;93445.28;;;3.78;100.00
50093;BME280;35974;47.752;10.290;2023-03-23T00:39:12;93441.06;;;3.77;100.00
50093;BME280;35974;47.752;10.290;2023-03-23T00:41:37;93432.34;;;3.78;100.00
50093;BME280;35974;47.752;10.290;2023-03-23T00:44:03;93444.88;;;3.89;100.00
50093;BME280;35974;47.752;10.290;2023-03-23T00:46:29;93419.97;;;3.88;100.00
50093;BME280;35974;47.752;10.290;2023-03-23T00:48:55;93416.19;;;3.76;100.00
50093;BME280;35974;47.752;10.290;2023-03-23T00:51:22;93441.25;;;3.98;100.00
50093;BME280;35974;47.752;10.290;2023-03-23T00:53:47;93430.84;;;4.07;100.00
50093;BME280;35974;47.752;10.290;2023-03-23T00:56:13;93417.03;;;3.91;100.00
50093;BME280;35974;47.752;10.290;2023-03-23T00:58:39;93390.38;;;3.67;100.00
50093;BME280;35974;47.752;10.290;2023-03-23T01:01:04;93401.84;;;3.88;100.00
50093;BME280;35974;47.752;10.290;2023-03-23T01:03:30;93410.88;;;3.92;100.00
50093;BME280;35974;47.752;10.290;2023-03-23T01:05:56;93418.78;;;3.76;100.00
50093;BME280;35974;47.752;10.290;2023-03-23T01:08:22;93421.09;;;3.71;100.00
50093;BME280;35974;47.752;10.290;2023-03-23T01:10:49;93390.50;;;3.51;100.00
50093;BME280;35974;47.752;10.290;2023-03-23T01:13:15;93434.19;;;3.92;100.00
50093;BME280;35974;47.752;10.290;2023-03-23T01:15:41;93398.06;;;3.76;100.00
50093;BME280;35974;47.752;10.290;2023-03-23T01:18:07;93401.13;;;3.56;100.00
50093;BME280;35974;47.752;10.290;2023-03-23T01:20:48;93394.44;;;3.39;100.00
50093;BME280;35974;47.752;10.290;2023-03-23T01:23:13;93404.84;;;3.54;100.00
50093;BME280;35974;47.752;10.290;2023-03-23T01:25:39;93409.81;;;3.63;100.00
50093;BME280;35974;47.752;10.290;2023-03-23T01:28:04;93426.94;;;3.64;100.00
50093;BME280;35974;47.752;10.290;2023-03-23T01:30:30;93417.22;;;3.66;100.00
50093;BME280;35974;47.752;10.290;2023-03-23T01:32:55;93421.09;;;3.71;100.00
50093;BME280;35974;47.752;10.290;2023-03-23T01:35:21;93422.13;;;3.61;100.00
50093;BME280;35974;47.752;10.290;2023-03-23T01:37:46;93408.56;;;3.59;100.00
50093;BME280;35974;47.752;10.290;2023-03-23T01:40:13;93416.38;;;3.74;100.00
50093;BME280;35974;47.752;10.290;2023-03-23T01:42:39;93417.00;;;3.76;100.00
50093;BME280;35974;47.752;10.290;2023-03-23T01:47:49;93394.28;;;3.63;100.00
50093;BME280;35974;47.752;10.290;2023-03-23T01:50:19;93376.91;;;3.49;100.00
50093;BME280;35974;47.752;10.290;2023-03-23T01:52:49;93389.34;;;3.54;100.00
50093;BME280;35974;47.752;10.290;2023-03-23T01:55:14;93371.63;;;3.42;100.00
50093;BME280;35974;47.752;10.290;2023-03-23T01:57:41;93383.38;;;3.53;100.00
50093;BME280;35974;47.752;10.290;2023-03-23T02:00:07;93403.44;;;3.74;100.00
50093;BME280;35974;47.752;10.290;2023-03-23T02:02:35;93409.13;;;3.70;100.00
50093;BME280;35974;47.752;10.290;2023-03-23T02:05:08;93400.72;;;3.67;100.00
50093;BME280;35974;47.752;10.290;2023-03-23T02:07:40;93373.47;;;3.57;100.00
50093;BME280;35974;47.752;10.290;2023-03-23T02:10:06;93395.91;;;3.64;100.00
50093;BME280;35974;47.752;10.290;2023-03-23T02:12:32;93393.47;;;3.86;100.00
50093;BME280;35974;47.752;10.290;2023-03-23T02:14:58;93368.75;;;3.60;100.00
50093;BME280;35974;47.752;10.290;2023-03-23T02:17:35;93385.22;;;3.67;100.00
50093;BME280;35974;47.752;10.290;2023-03-23T02:31:09;93390.03;;;3.71;100.00
50093;BME280;35974;47.752;10.290;2023-03-23T02:36:29;93389.69;;;3.74;100.00
50093;BME280;35974;47.752;10.290;2023-03-23T02:39:19;93375.19;;;3.64;100.00
50093;BME280;35974;47.752;10.290;2023-03-23T02:41:54;93376.22;;;3.55;100.00
50093;BME280;35974;47.752;10.290;2023-03-23T02:44:22;93398.16;;;3.67;100.00
50093;BME280;35974;47.752;10.290;2023-03-23T02:46:50;93382.69;;;3.59;100.00
50093;BME280;35974;47.752;10.290;2023-03-23T02:49:17;93389.69;;;3.74;100.00
50093;BME280;35974;47.752;10.290;2023-03-23T02:51:46;93392.06;;;3.75;100.00
50093;BME280;35974;47.752;10.290;2023-03-23T02:54:13;93396.81;;;3.72;100.00
50093;BME280;35974;47.752;10.290;2023-03-23T02:56:40;93395.31;;;3.77;100.00
50093;BME280;35974;47.752;10.290;2023-03-23T02:59:05;93355.88;;;3.52;100.00
50093;BME280;35974;47.752;10.290;2023-03-23T03:04:05;93369.69;;;3.67;100.00
50093;BME280;35974;47.752;10.290;2023-03-23T03:06:41;93384.72;;;3.87;100.00
50093;BME280;35974;47.752;10.290;2023-03-23T03:12:17;93364.38;;;3.84;100.00
50093;BME280;35974;47.752;10.290;2023-03-23T03:14:54;93352.41;;;3.83;100.00
50093;BME280;35974;47.752;10.290;2023-03-23T03:17:24;93353.41;;;3.82;100.00
50093;BME280;35974;47.752;10.290;2023-03-23T03:19:54;93359.38;;;3.97;100.00
50093;BME280;35974;47.752;10.290;2023-03-23T03:22:23;93380.28;;;4.11;100.00
50093;BME280;35974;47.752;10.290;2023-03-23T03:24:55;93349.72;;;3.91;100.00
50093;BME280;35974;47.752;10.290;2023-03-23T03:27:23;93359.94;;;4.08;100.00
50093;BME280;35974;47.752;10.290;2023-03-23T03:29:54;93379.59;;;4.17;100.00
50093;BME280;35974;47.752;10.290;2023-03-23T03:32:24;93380.53;;;4.24;100.00
50093;BME280;35974;47.752;10.290;2023-03-23T03:34:51;93388.91;;;4.26;100.00
50093;BME280;35974;47.752;10.290;2023-03-23T03:37:17;93368.78;;;4.13;100.00
50093;BME280;35974;47.752;10.290;2023-03-23T03:39:44;93394.09;;;4.26;100.00
50093;BME280;35974;47.752;10.290;2023-03-23T03:42:09;93370.41;;;4.14;100.00
50093;BME280;35974;47.752;10.290;2023-03-23T03:44:34;93356.47;;;4.15;100.00
50093;BME280;35974;47.752;10.290;2023-03-23T03:47:00;93386.41;;;4.48;100.00
50093;BME280;35974;47.752;10.290;2023-03-23T03:49:25;93391.59;;;4.48;100.00
50093;BME280;35974;47.752;10.290;2023-03-23T03:51:52;93413.75;;;4.65;100.00
50093;BME280;35974;47.752;10.290;2023-03-23T03:54:17;93372.06;;;4.45;100.00
50093;BME280;35974;47.752;10.290;2023-03-23T03:56:43;93387.69;;;4.52;100.00
50093;BME280;35974;47.752;10.290;2023-03-23T03:59:09;93388.91;;;4.56;100.00
50093;BME280;35974;47.752;10.290;2023-03-23T04:01:37;93399.72;;;4.59;100.00
50093;BME280;35974;47.752;10.290;2023-03-23T04:04:02;93422.06;;;4.61;100.00
50093;BME280;35974;47.752;10.290;2023-03-23T04:06:29;93407.78;;;4.65;100.00
50093;BME280;35974;47.752;10.290;2023-03-23T04:08:57;93419.66;;;4.59;100.00
50093;BME280;35974;47.752;10.290;2023-03-23T04:11:24;93431.63;;;4.60;100.00
50093;BME280;35974;47.752;10.290;2023-03-23T04:13:50;93432.78;;;4.57;100.00
50093;BME280;35974;47.752;10.290;2023-03-23T04:16:16;93399.63;;;4.53;100.00
50093;BME280;35974;47.752;10.290;2023-03-23T04:18:42;93403.31;;;4.58;100.00
50093;BME280;35974;47.752;10.290;2023-03-23T04:21:10;93397.59;;;4.63;100.00
50093;BME280;35974;47.752;10.290;2023-03-23T04:23:35;93402.78;;;4.63;100.00
50093;BME280;35974;47.752;10.290;2023-03-23T04:26:01;93392.13;;;4.58;100.00
50093;BME280;35974;47.752;10.290;2023-03-23T04:28:28;93391.78;;;4.61;100.00
50093;BME280;35974;47.752;10.290;2023-03-23T04:30:55;93409.47;;;4.72;100.00
50093;BME280;35974;47.752;10.290;2023-03-23T04:33:24;93424.19;;;5.02;100.00
50093;BME280;35974;47.752;10.290;2023-03-23T04:35:56;93424.72;;;4.97;100.00
50093;BME280;35974;47.752;10.290;2023-03-23T04:38:26;93432.16;;;5.00;100.00
50093;BME280;35974;47.752;10.290;2023-03-23T04:40:53;93427.59;;;5.02;100.00
50093;BME280;35974;47.752;10.290;2023-03-23T04:43:23;93427.88;;;5.07;100.00
50093;BME280;35974;47.752;10.290;2023-03-23T04:45:59;93415.16;;;5.12;100.00
50093;BME280;35974;47.752;10.290;2023-03-23T04:48:28;93411.66;;;5.20;100.00
50093;BME280;35974;47.752;10.290;2023-03-23T04:50:55;93391.56;;;5.07;100.00
50093;BME280;35974;47.752;10.290;2023-03-23T04:53:44;93402.81;;;5.14;100.00
50093;BME280;35974;47.752;10.290;2023-03-23T04:56:19;93411.88;;;5.40;100.00
50093;BME280;35974;47.752;10.290;2023-03-23T04:58:50;93396.16;;;5.27;100.00
50093;BME280;35974;47.752;10.290;2023-03-23T05:01:22;93338.31;;;4.90;100.00
50093;BME280;35974;47.752;10.290;2023-03-23T05:03:51;93366.72;;;4.98;100.00
50093;BME280;35974;47.752;10.290;2023-03-23T05:06:20;93378.84;;;5.12;100.00
50093;BME280;35974;47.752;10.290;2023-03-23T05:08:50;93384.91;;;5.20;100.00
50093;BME280;35974;47.752;10.290;2023-03-23T05:11:16;93386.88;;;5.18;100.00
50093;BME280;35974;47.752;10.290;2023-03-23T05:13:41;93396.53;;;5.24;100.00
50093;BME280;35974;47.752;10.290;2023-03-23T05:16:19;93386.66;;;5.34;100.00
50093;BME280;35974;47.752;10.290;2023-03-23T05:18:49;93363.78;;;5.23;100.00
50093;BME280;35974;47.752;10.290;2023-03-23T05:21:15;93393.34;;;5.43;100.00
50093;BME280;35974;47.752;10.290;2023-03-23T05:23:40;93369.88;;;5.30;100.00
50093;BME280;35974;47.752;10.290;2023-03-23T05:26:06;93378.75;;;5.42;100.00
50093;BME280;35974;47.752;10.290;2023-03-23T05:28:36;93363.06;;;5.29;100.00
50093;BME280;35974;47.752;10.290;2023-03-23T05:31:02;93368.75;;;5.39;100.00
50093;BME280;35974;47.752;10.290;2023-03-23T05:33:28;93385.19;;;5.46;100.00
50093;BME280;35974;47.752;10.290;2023-03-23T05:35:53;93364.75;;;5.37;100.00
50093;BME280;35974;47.752;10.290;2023-03-23T05:38:19;93369.25;;;5.49;100.00
50093;BME280;35974;47.752;10.290;2023-03-23T05:40:44;93383.88;;;5.57;100.00
50093;BME280;35974;47.752;10.290;2023-03-23T05:43:10;93396.19;;;5.70;100.00
50093;BME280;35974;47.752;10.290;2023-03-23T05:45:36;93358.75;;;5.58;100.00
50093;BME280;35974;47.752;10.290;2023-03-23T05:48:09;93369.88;;;5.73;100.00
50093;BME280;35974;47.752;10.290;2023-03-23T05:50:34;93354.75;;;5.77;100.00
50093;BME280;35974;47.752;10.290;2023-03-23T05:53:01;93355.78;;;6.04;100.00
50093;BME280;35974;47.752;10.290;2023-03-23T05:55:28;93331.66;;;5.89;100.00
50093;BME280;35974;47.752;10.290;2023-03-23T05:57:56;93341.97;;;6.32;100.00
50093;BME280;35974;47.752;10.290;2023-03-23T06:00:21;93349.13;;;7.00;100.00
50093;BME280;35974;47.752;10.290;2023-03-23T06:02:48;93362.47;;;7.58;100.00
50093;BME280;35974;47.752;10.290;2023-03-23T06:05:16;93356.09;;;7.94;100.00
50093;BME280;35974;47.752;10.290;2023-03-23T06:07:42;93343.50;;;8.18;93.34
50093;BME280;35974;47.752;10.290;2023-03-23T06:10:10;93333.66;;;8.27;90.80
50093;BME280;35974;47.752;10.290;2023-03-23T06:12:37;93352.88;;;8.59;86.97
50093;BME280;35974;47.752;10.290;2023-03-23T06:15:04;93338.03;;;8.53;86.74
50093;BME280;35974;47.752;10.290;2023-03-23T06:17:32;93340.66;;;8.53;87.15
50093;BME280;35974;47.752;10.290;2023-03-23T06:19:57;93311.97;;;8.39;87.52
50093;BME280;35974;47.752;10.290;2023-03-23T06:24:58;93350.50;;;8.51;88.77
50093;BME280;35974;47.752;10.290;2023-03-23T06:27:25;93352.50;;;8.35;89.03
50093;BME280;35974;47.752;10.290;2023-03-23T06:29:51;93338.25;;;8.24;89.93
50093;BME280;35974;47.752;10.290;2023-03-23T06:32:16;93347.25;;;8.62;89.24
50093;BME280;35974;47.752;10.290;2023-03-23T06:34:42;93319.16;;;8.64;87.89
50093;BME280;35974;47.752;10.290;2023-03-23T06:37:12;93334.38;;;8.81;87.66
50093;BME280;35974;47.752;10.290;2023-03-23T06:39:39;93316.25;;;8.99;85.53
50093;BME280;35974;47.752;10.290;2023-03-23T06:42:09;93348.63;;;9.30;84.98
50093;BME280;35974;47.752;10.290;2023-03-23T06:44:35;93300.84;;;9.23;83.91
50093;BME280;35974;47.752;10.290;2023-03-23T06:47:00;93357.75;;;9.52;80.27
50093;BME280;35974;47.752;10.290;2023-03-23T06:49:27;93290.53;;;9.41;77.97
50093;BME280;35974;47.752;10.290;2023-03-23T06:51:53;93339.31;;;10.04;76.83
50093;BME280;35974;47.752;10.290;2023-03-23T06:54:21;93321.81;;;10.30;74.86
50093;BME280;35974;47.752;10.290;2023-03-23T06:56:46;93348.84;;;10.68;73.13
50093;BME280;35974;47.752;10.290;2023-03-23T06:59:26;93326.16;;;10.80;71.80
50093;BME280;35974;47.752;10.290;2023-03-23T07:01:52;93334.66;;;11.12;72.15
50093;BME280;35974;47.752;10.290;2023-03-23T07:04:18;93323.03;;;11.39;70.76
50093;BME280;35974;47.752;10.290;2023-03-23T07:06:43;93348.16;;;11.58;70.86
50093;BME280;35974;47.752;10.290;2023-03-23T07:09:09;93353.16;;;11.78;71.29
50093;BME280;35974;47.752;10.290;2023-03-23T07:11:34;93352.97;;;11.92;73.14
50093;BME280;35974;47.752;10.290;2023-03-23T07:13:59;93353.56;;;12.05;70.22
50093;BME280;35974;47.752;10.290;2023-03-23T07:16:25;93341.03;;;12.07;70.10
50093;BME280;35974;47.752;10.290;2023-03-23T07:18:51;93347.41;;;12.12;68.23
50093;BME280;35974;47.752;10.290;2023-03-23T07:21:16;93361.69;;;12.16;67.21
50093;BME280;35974;47.752;10.290;2023-03-23T07:23:42;93366.38;;;12.37;67.51
50093;BME280;35974;47.752;10.290;2023-03-23T07:26:07;93356.13;;;12.48;67.89
50093;BME280;35974;47.752;10.290;2023-03-23T07:28:32;93358.41;;;12.56;67.24
50093;BME280;35974;47.752;10.290;2023-03-23T07:30:58;93359.09;;;12.63;67.91
50093;BME280;35974;47.752;10.290;2023-03-23T07:33:23;93361.59;;;12.81;66.42
50093;BME280;35974;47.752;10.290;2023-03-23T07:35:48;93355.22;;;12.77;67.79
50093;BME280;35974;47.752;10.290;2023-03-23T07:38:14;93361.84;;;12.68;67.16
50093;BME280;35974;47.752;10.290;2023-03-23T07:40:39;93369.81;;;12.73;67.17
50093;BME280;35974;47.752;10.290;2023-03-23T07:43:05;93367.88;;;12.69;65.95
50093;BME280;35974;47.752;10.290;2023-03-23T07:45:31;93366.38;;;12.85;65.80
50093;BME280;35974;47.752;10.290;2023-03-23T07:47:57;93367.09;;;12.92;66.69
50093;BME280;35974;47.752;10.290;2023-03-23T07:50:22;93369.22;;;13.07;64.39
50093;BME280;35974;47.752;10.290;2023-03-23T07:52:58;93362.69;;;13.21;65.44
50093;BME280;35974;47.752;10.290;2023-03-23T07:55:24;93365.53;;;13.19;66.46
50093;BME280;35974;47.752;10.290;2023-03-23T07:57:49;93377.28;;;13.29;67.52
50093;BME280;35974;47.752;10.290;2023-03-23T08:00:16;93375.63;;;13.51;67.62
50093;BME280;35974;47.752;10.290;2023-03-23T08:02:45;93375.25;;;13.60;66.41
50093;BME280;35974;47.752;10.290;2023-03-23T08:05:11;93373.88;;;13.98;65.71
50093;BME280;35974;47.752;10.290;2023-03-23T08:07:38;93379.63;;;14.28;64.81
50093;BME280;35974;47.752;10.290;2023-03-23T08:10:04;93367.97;;;14.24;65.57
50093;BME280;35974;47.752;10.290;2023-03-23T08:12:30;93372.94;;;14.38;64.52
50093;BME280;35974;47.752;10.290;2023-03-23T08:14:56;93374.31;;;14.74;64.44
50093;BME280;35974;47.752;10.290;2023-03-23T08:17:22;93373.09;;;14.82;62.42
50093;BME280;35974;47.752;10.290;2023-03-23T08:19:47;93377.72;;;14.75;61.83
50093;BME280;35974;47.752;10.290;2023-03-23T08:22:12;93381.25;;;14.63;60.03
50093;BME280;35974;47.752;10.290;2023-03-23T08:24:38;93376.47;;;14.60;59.15
50093;BME280;35974;47.752;10.290;2023-03-23T08:27:04;93389.38;;;14.45;60.01
50093;BME280;35974;47.752;10.290;2023-03-23T08:29:29;93384.34;;;14.60;59.66
50093;BME280;35974;47.752;10.290;2023-03-23T08:31:56;93383.94;;;14.69;58.68
50093;BME280;35974;47.752;10.290;2023-03-23T08:34:22;93392.56;;;14.81;59.46
50093;BME280;35974;47.752;10.290;2023-03-23T08:36:47;93400.56;;;14.69;58.36
50093;BME280;35974;47.752;10.290;2023-03-23T08:39:13;93407.09;;;14.67;58.53
50093;BME280;35974;47.752;10.290;2023-03-23T08:41:43;93414.78;;;14.85;58.11
50093;BME280;35974;47.752;10.290;2023-03-23T08:44:08;93418.38;;;15.18;57.87
50093;BME280;35974;47.752;10.290;2023-03-23T08:46:34;93424.53;;;15.46;55.80
50093;BME280;35974;47.752;10.290;2023-03-23T08:49:03;93421.97;;;15.51;54.84
50093;BME280;35974;47.752;10.290;2023-03-23T08:51:28;93438.81;;;15.89;54.49
50093;BME280;35974;47.752;10.290;2023-03-23T08:53:54;93439.63;;;16.17;55.09
50093;BME280;35974;47.752;10.290;2023-03-23T08:56:19;93433.25;;;15.68;57.25
50093;BME280;35974;47.752;10.290;2023-03-23T08:58:45;93437.19;;;15.44;56.97
50093;BME280;35974;47.752;10.290;2023-03-23T09:01:10;93436.19;;;15.50;57.90
50093;BME280;35974;47.752;10.290;2023-03-23T09:03:36;93428.34;;;15.55;57.07
50093;BME280;35974;47.752;10.290;2023-03-23T09:06:02;93423.56;;;15.52;58.27
50093;BME280;35974;47.752;10.290;2023-03-23T09:08:28;93430.75;;;15.79;55.84
50093;BME280;35974;47.752;10.290;2023-03-23T09:10:54;93428.13;;;15.79;46.65
50093;BME280;35974;47.752;10.290;2023-03-23T09:13:20;93428.25;;;15.89;44.44
50093;BME280;35974;47.752;10.290;2023-03-23T09:15:45;93428.91;;;16.01;45.91
50093;BME280;35974;47.752;10.290;2023-03-23T09:18:11;93427.38;;;16.05;45.01
50093;BME280;35974;47.752;10.290;2023-03-23T09:20:39;93425.78;;;16.32;44.16
50093;BME280;35974;47.752;10.290;2023-03-23T09:23:05;93434.84;;;16.14;44.53
50093;BME280;35974;47.752;10.290;2023-03-23T09:25:30;93448.47;;;16.33;45.41
50093;BME280;35974;47.752;10.290;2023-03-23T09:27:56;93445.13;;;16.42;43.96
50093;BME280;35974;47.752;10.290;2023-03-23T09:30:29;93448.38;;;16.50;43.96
50093;BME280;35974;47.752;10.290;2023-03-23T09:32:55;93441.06;;;16.62;44.07
50093;BME280;35974;47.752;10.290;2023-03-23T09:35:21;93448.56;;;16.70;43.05
50093;BME280;35974;47.752;10.290;2023-03-23T09:37:47;93440.56;;;16.65;43.35
50093;BME280;35974;47.752;10.290;2023-03-23T09:40:14;93447.53;;;16.76;42.93
50093;BME280;35974;47.752;10.290;2023-03-23T09:46:17;93451.25;;;16.75;43.42
50093;BME280;35974;47.752;10.290;2023-03-23T09:50:52;93454.22;;;16.57;45.33
50093;BME280;35974;47.752;10.290;2023-03-23T09:53:21;93450.59;;;16.63;44.30
50093;BME280;35974;47.752;10.290;2023-03-23T09:55:47;93451.97;;;16.38;42.77
50093;BME280;35974;47.752;10.290;2023-03-23T10:00:57;93457.72;;;16.90;43.54
50093;BME280;35974;47.752;10.290;2023-03-23T10:03:35;93466.78;;;17.04;43.09
50093;BME280;35974;47.752;10.290;2023-03-23T10:06:02;93457.75;;;16.95;42.36
50093;BME280;35974;47.752;10.290;2023-03-23T10:08:29;93464.13;;;16.39;43.13
50093;BME280;35974;47.752;10.290;2023-03-23T10:16:17;93467.91;;;16.48;42.76
50093;BME280;35974;47.752;10.290;2023-03-23T10:18:47;93458.31;;;16.42;43.69
50093;BME280;35974;47.752;10.290;2023-03-23T10:21:14;93468.66;;;16.76;43.90
50093;BME280;35974;47.752;10.290;2023-03-23T10:23:52;93465.97;;;16.71;42.84
50093;BME280;35974;47.752;10.290;2023-03-23T10:29:26;93460.41;;;16.95;42.92
50093;BME280;35974;47.752;10.290;2023-03-23T10:31:54;93472.59;;;16.41;43.52
50093;BME280;35974;47.752;10.290;2023-03-23T10:34:41;93446.84;;;16.26;44.19
50093;BME280;35974;47.752;10.290;2023-03-23T10:37:25;93461.69;;;16.65;44.37
50093;BME280;35974;47.752;10.290;2023-03-23T10:42:22;93463.44;;;17.62;44.18
50093;BME280;35974;47.752;10.290;2023-03-23T10:44:47;93460.09;;;17.87;41.69
50093;BME280;35974;47.752;10.290;2023-03-23T10:47:13;93464.22;;;18.20;40.89
50093;BME280;35974;47.752;10.290;2023-03-23T10:49:41;93464.25;;;18.30;40.57
50093;BME280;35974;47.752;10.290;2023-03-23T10:54:37;93461.56;;;18.15;41.39
50093;BME280;35974;47.752;10.290;2023-03-23T11:05:26;93435.81;;;17.95;38.76
50093;BME280;35974;47.752;10.290;2023-03-23T11:07:54;93450.72;;;18.17;39.81
50093;BME280;35974;47.752;10.290;2023-03-23T11:10:21;93444.69;;;18.62;39.71
50093;BME280;35974;47.752;10.290;2023-03-23T11:12:47;93441.00;;;18.74;40.01
50093;BME280;35974;47.752;10.290;2023-03-23T11:17:54;93443.00;;;18.05;38.60
50093;BME280;35974;47.752;10.290;2023-03-23T11:20:20;93445.94;;;18.14;40.20
50093;BME280;35974;47.752;10.290;2023-03-23T11:22:46;93454.66;;;18.04;37.68
50093;BME280;35974;47.752;10.290;2023-03-23T11:25:23;93451.59;;;17.27;37.69
50093;BME280;35974;47.752;10.290;2023-03-23T11:27:49;93439.78;;;17.87;40.00
50093;BME280;35974;47.752;10.290;2023-03-23T11:30:25;93446.03;;;17.71;38.28
50093;BME280;35974;47.752;10.290;2023-03-23T11:32:52;93443.44;;;17.86;39.98
50093;BME280;35974;47.752;10.290;2023-03-23T11:35:23;93452.50;;;17.43;40.04
50093;BME280;35974;47.752;10.290;2023-03-23T11:37:57;93448.03;;;17.48;39.07
50093;BME280;35974;47.752;10.290;2023-03-23T11:40:30;93450.75;;;17.64;38.80
50093;BME280;35974;47.752;10.290;2023-03-23T11:43:00;93447.13;;;17.85;38.83
50093;BME280;35974;47.752;10.290;2023-03-23T11:48:06;93452.41;;;17.75;38.06
50093;BME280;35974;47.752;10.290;2023-03-23T11:50:43;93444.47;;;17.80;39.81
50093;BME280;35974;47.752;10.290;2023-03-23T11:53:32;93445.44;;;17.59;38.67
50093;BME280;35974;47.752;10.290;2023-03-23T11:56:06;93467.25;;;16.96;39.96
50093;BME280;35974;47.752;10.290;2023-03-23T11:58:33;93465.69;;;16.68;40.99
50093;BME280;35974;47.752;10.290;2023-03-23T12:01:12;93452.75;;;16.66;42.12
50093;BME280;35974;47.752;10.290;2023-03-23T12:06:34;93455.84;;;16.58;42.18
50093;BME280;35974;47.752;10.290;2023-03-23T12:22:03;93445.94;;;16.16;43.31
50093;BME280;35974;47.752;10.290;2023-03-23T12:24:40;93451.09;;;16.60;43.64
50093;BME280;35974;47.752;10.290;2023-03-23T12:30:01;93444.66;;;16.51;43.45
50093;BME280;35974;47.752;10.290;2023-03-23T12:32:40;93444.53;;;16.95;44.79
50093;BME280;35974;47.752;10.290;2023-03-23T12:37:59;93440.13;;;16.14;44.34
50093;BME280;35974;47.752;10.290;2023-03-23T12:48:44;93441.34;;;16.93;43.98
50093;BME280;35974;47.752;10.290;2023-03-23T12:51:22;93436.69;;;16.73;43.81
50093;BME280;35974;47.752;10.290;2023-03-23T12:53:59;93428.09;;;16.60;45.22
50093;BME280;35974;47.752;10.290;2023-03-23T13:01:45;93424.59;;;16.50;44.65
50093;BME280;35974;47.752;10.290;2023-03-23T13:04:14;93422.69;;;16.72;45.71
50093;BME280;35974;47.752;10.290;2023-03-23T13:06:49;93424.91;;;16.86;45.71
50093;BME280;35974;47.752;10.290;2023-03-23T13:09:21;93427.34;;;16.65;46.09
50093;BME280;35974;47.752;10.290;2023-03-23T13:11:49;93411.22;;;16.94;46.94
50093;BME280;35974;47.752;10.290;2023-03-23T13:27:58;93395.09;;;17.38;44.82
50093;BME280;35974;47.752;10.290;2023-03-23T13:30:36;93405.50;;;17.07;45.27
50093;BME280;35974;47.752;10.290;2023-03-23T13:33:05;93400.78;;;16.77;45.21
50093;BME280;35974;47.752;10.290;2023-03-23T13:35:35;93408.09;;;17.02;45.64
50093;BME280;35974;47.752;10.290;2023-03-23T13:38:02;93409.16;;;17.01;44.32
50093;BME280;35974;47.752;10.290;2023-03-23T13:40:40;93404.25;;;16.82;44.79
50093;BME280;35974;47.752;10.290;2023-03-23T13:43:07;93400.09;;;16.87;44.11
50093;BME280;35974;47.752;10.290;2023-03-23T13:45:46;93403.94;;;16.41;45.19
50093;BME280;35974;47.752;10.290;2023-03-23T13:50:49;93401.25;;;16.36;45.55
50093;BME280;35974;47.752;10.290;2023-03-23T13:56:56;93398.72;;;15.92;47.26
50093;BME280;35974;47.752;10.290;2023-03-23T13:58:49;93398.34;;;15.61;46.91
50093;BME280;35974;47.752;10.290;2023-03-23T14:03:49;93393.19;;;15.71;48.74
50093;BME280;35974;47.752;10.290;2023-03-23T14:06:26;93394.50;;;15.91;47.37
50093;BME280;35974;47.752;10.290;2023-03-23T14:09:13;93397.78;;;16.03;48.27
50093;BME280;35974;47.752;10.290;2023-03-23T14:11:46;93393.88;;;15.84;46.88
50093;BME280;35974;47.752;10.290;2023-03-23T14:14:21;93383.63;;;15.65;46.51
50093;BME280;35974;47.752;10.290;2023-03-23T14:16:52;93384.78;;;15.30;48.39
50093;BME280;35974;47.752;10.290;2023-03-23T14:19:19;93397.91;;;15.25;49.19
50093;BME280;35974;47.752;10.290;2023-03-23T14:21:50;93387.91;;;15.05;49.86
50093;BME280;35974;47.752;10.290;2023-03-23T14:24:16;93379.63;;;14.96;49.31
50093;BME280;35974;47.752;10.290;2023-03-23T14:26:43;93385.38;;;14.76;48.52
50093;BME280;35974;47.752;10.290;2023-03-23T14:31:40;93403.41;;;14.34;53.08
50093;BME280;35974;47.752;10.290;2023-03-23T14:34:13;93388.09;;;14.31;52.43
50093;BME280;35974;47.752;10.290;2023-03-23T14:36:47;93384.59;;;14.76;51.72
50093;BME280;35974;47.752;10.290;2023-03-23T14:42:03;93380.28;;;14.87;51.14
50093;BME280;35974;47.752;10.290;2023-03-23T14:44:29;93387.19;;;14.93;51.27
50093;BME280;35974;47.752;10.290;2023-03-23T14:46:56;93390.16;;;14.96;51.50
50093;BME280;35974;47.752;10.290;2023-03-23T14:49:32;93396.22;;;14.80;50.22
50093;BME280;35974;47.752;10.290;2023-03-23T14:52:14;93398.06;;;14.96;51.02
50093;BME280;35974;47.752;10.290;2023-03-23T14:54:41;93394.59;;;15.13;50.41
50093;BME280;35974;47.752;10.290;2023-03-23T14:59:46;93404.31;;;14.90;50.66
50093;BME280;35974;47.752;10.290;2023-03-23T15:02:17;93394.00;;;14.89;50.31